createdAt,value
2023-02-28T00:00:47.505Z,61.80
2023-02-28T00:05:49.272Z,62.00
2023-02-28T00:10:51.951Z,61.43
2023-02-28T00:16:01.947Z,61.73
2023-02-28T00:21:04.701Z,59.74
2023-02-28T00:26:06.429Z,60.57
2023-02-28T00:31:08.342Z,62.02
2023-02-28T00:36:13.001Z,62.19
2023-02-28T00:41:15.652Z,62.09
2023-02-28T00:46:18.473Z,63.09
2023-02-28T00:51:21.846Z,63.07
2023-02-28T00:56:23.598Z,63.89
2023-02-28T01:01:25.246Z,64.46
2023-02-28T01:06:27.119Z,64.70
2023-02-28T01:11:28.959Z,65.14
2023-02-28T01:16:31.157Z,65.88
2023-02-28T01:21:33.032Z,66.00
2023-02-28T01:26:34.856Z,65.18
2023-02-28T01:31:37.333Z,64.82
2023-02-28T01:36:39.212Z,63.79
2023-02-28T01:41:41.562Z,63.55
2023-02-28T01:46:43.754Z,62.85
2023-02-28T01:51:52.057Z,63.51
2023-02-28T01:56:59.950Z,62.89
2023-02-28T02:02:03.262Z,63.32
2023-02-28T02:07:05.328Z,63.04
2023-02-28T02:12:32.891Z,62.92
2023-02-28T02:17:45.536Z,63.32
2023-02-28T02:23:18.924Z,63.40
2023-02-28T02:29:03.143Z,64.25
2023-02-28T02:34:27.487Z,64.90
2023-02-28T02:39:45.624Z,64.83
2023-02-28T02:44:55.359Z,64.86
2023-02-28T02:50:05.683Z,65.21
2023-02-28T02:55:12.076Z,65.41
2023-02-28T03:00:17.788Z,65.85
2023-02-28T03:05:27.792Z,66.77
2023-02-28T03:10:40.635Z,67.49
2023-02-28T03:16:08.221Z,67.95
2023-02-28T03:21:25.318Z,68.23
2023-02-28T03:26:28.768Z,68.68
2023-02-28T03:31:45.387Z,68.57
2023-02-28T03:36:52.400Z,69.39
2023-02-28T03:42:02.023Z,70.83
2023-02-28T03:47:11.898Z,71.50
2023-02-28T03:52:13.649Z,71.80
2023-02-28T03:57:30.092Z,72.05
2023-02-28T04:02:31.975Z,72.66
2023-02-28T04:07:34.288Z,72.85
2023-02-28T04:12:36.138Z,73.12
2023-02-28T04:17:38.307Z,73.22
2023-02-28T04:22:40.148Z,73.13
2023-02-28T04:27:41.910Z,73.23
2023-02-28T04:32:43.633Z,73.06
2023-02-28T04:37:45.464Z,73.44
2023-02-28T04:42:47.236Z,73.18
2023-02-28T04:47:49.005Z,73.32
2023-02-28T04:52:50.725Z,73.39
2023-02-28T04:57:52.593Z,73.64
2023-02-28T05:06:32.191Z,74.07
2023-02-28T05:11:39.676Z,74.79
2023-02-28T05:16:41.427Z,74.81
2023-02-28T05:21:52.289Z,74.82
2023-02-28T05:26:55.355Z,75.37
2023-02-28T05:31:57.184Z,76.08
2023-02-28T05:36:59.092Z,76.06
2023-02-28T05:42:00.806Z,75.81
2023-02-28T05:47:02.516Z,75.96
2023-02-28T05:52:04.390Z,75.90
2023-02-28T05:57:12.613Z,76.01
2023-02-28T06:02:18.959Z,76.03
2023-02-28T06:07:20.727Z,75.72
2023-02-28T06:12:22.316Z,75.55
2023-02-28T06:17:24.056Z,75.47
2023-02-28T06:22:25.763Z,75.62
2023-02-28T06:27:27.683Z,75.37
2023-02-28T06:32:29.397Z,75.04
2023-02-28T06:37:34.200Z,74.75
2023-02-28T06:42:35.896Z,74.85
2023-02-28T06:47:38.621Z,74.30
2023-02-28T06:52:40.484Z,73.19
2023-02-28T06:57:42.193Z,72.93
2023-02-28T07:02:44.137Z,73.30
2023-02-28T07:07:47.983Z,72.66
2023-02-28T07:12:49.795Z,72.06
2023-02-28T07:17:51.588Z,71.70
2023-02-28T07:22:58.934Z,71.15
2023-02-28T07:28:01.340Z,70.83
2023-02-28T07:33:03.073Z,70.01
2023-02-28T07:38:05.042Z,69.55
2023-02-28T07:43:06.792Z,69.37
2023-02-28T07:48:11.117Z,67.29
2023-02-28T07:53:12.901Z,67.28
2023-02-28T07:58:14.658Z,68.44
2023-02-28T08:03:16.844Z,69.39
2023-02-28T08:08:18.536Z,67.86
2023-02-28T08:13:20.193Z,65.49
2023-02-28T08:18:23.175Z,65.82
2023-02-28T08:23:24.847Z,65.93
2023-02-28T08:28:27.580Z,65.70
2023-02-28T08:33:29.459Z,64.85
2023-02-28T08:38:31.291Z,63.18
2023-02-28T08:43:32.985Z,60.81
2023-02-28T08:48:36.081Z,59.29
2023-02-28T08:53:40.205Z,57.45
2023-02-28T08:58:42.213Z,57.65
2023-02-28T09:03:45.299Z,57.28
2023-02-28T09:08:47.413Z,55.98
2023-02-28T09:13:49.108Z,53.81
2023-02-28T09:18:51.162Z,52.32
2023-02-28T09:23:53.209Z,52.13
2023-02-28T09:28:56.016Z,51.42
2023-02-28T09:33:58.887Z,50.33
2023-02-28T09:39:00.562Z,49.57
2023-02-28T09:44:05.259Z,48.40
2023-02-28T09:49:20.448Z,49.52
2023-02-28T09:54:25.004Z,50.13
2023-02-28T09:59:55.854Z,49.89
2023-02-28T10:05:09.782Z,49.59
2023-02-28T10:10:22.543Z,49.95
2023-02-28T10:15:27.700Z,49.01
2023-02-28T10:20:34.853Z,49.51
2023-02-28T10:25:39.396Z,48.96
2023-02-28T10:30:46.338Z,45.99
2023-02-28T10:35:48.132Z,45.86
2023-02-28T10:40:50.498Z,43.59
2023-02-28T10:46:10.463Z,43.08
2023-02-28T10:51:17.453Z,42.68
2023-02-28T10:56:22.960Z,42.03
2023-02-28T11:01:40.955Z,41.90
2023-02-28T11:06:42.994Z,41.74
2023-02-28T11:11:47.935Z,41.18
2023-02-28T11:16:51.180Z,40.89
2023-02-28T11:22:00.132Z,40.63
2023-02-28T11:27:02.725Z,42.99
2023-02-28T11:32:24.187Z,42.55
2023-02-28T11:37:28.289Z,43.24
2023-02-28T11:42:40.253Z,43.98
2023-02-28T11:47:49.219Z,44.42
2023-02-28T11:52:57.162Z,42.94
2023-02-28T11:58:17.814Z,42.78
2023-02-28T12:03:29.287Z,42.29
2023-02-28T12:08:49.400Z,42.48
2023-02-28T12:14:21.812Z,42.66
2023-02-28T12:19:34.705Z,42.98
2023-02-28T12:24:58.025Z,43.41
2023-02-28T12:30:26.941Z,42.61
2023-02-28T12:35:42.048Z,42.71
2023-02-28T12:40:49.903Z,42.85
2023-02-28T12:45:57.994Z,42.66
2023-02-28T12:51:01.770Z,42.85
2023-02-28T12:56:37.491Z,42.72
2023-02-28T13:01:48.801Z,42.94
2023-02-28T13:07:09.788Z,44.11
2023-02-28T13:12:16.602Z,42.78
2023-02-28T13:17:24.794Z,41.84
2023-02-28T13:22:26.535Z,42.39
2023-02-28T13:27:40.436Z,40.11
2023-02-28T13:32:42.273Z,39.52
2023-02-28T13:37:45.797Z,39.70
2023-02-28T13:42:50.655Z,40.13
2023-02-28T13:48:03.052Z,40.91
2023-02-28T13:53:18.324Z,39.98
2023-02-28T13:58:42.099Z,40.99
2023-02-28T14:03:59.013Z,41.04
2023-02-28T14:09:09.293Z,40.53
2023-02-28T14:14:36.939Z,39.99
2023-02-28T14:19:39.862Z,40.17
2023-02-28T14:25:19.384Z,40.20
2023-02-28T14:30:39.255Z,40.27
2023-02-28T14:35:54.884Z,40.34
2023-02-28T14:41:01.636Z,39.88
2023-02-28T14:46:07.386Z,40.23
2023-02-28T14:51:10.074Z,41.34
2023-02-28T14:56:37.853Z,41.86
2023-02-28T15:01:39.737Z,41.26
2023-02-28T15:06:42.605Z,43.14
2023-02-28T15:11:49.712Z,42.13
2023-02-28T15:17:01.141Z,42.47
2023-02-28T15:22:17.906Z,42.84
2023-02-28T15:27:31.024Z,43.67
2023-02-28T15:32:38.245Z,44.06
2023-02-28T15:37:47.414Z,45.07
2023-02-28T15:43:08.592Z,46.13
2023-02-28T15:48:24.158Z,46.96
2023-02-28T15:53:41.180Z,47.78
2023-02-28T15:58:43.601Z,47.08
2023-02-28T16:03:51.146Z,48.45
2023-02-28T16:08:54.109Z,49.61
2023-02-28T16:13:56.096Z,50.22
2023-02-28T16:18:58.026Z,51.27
2023-02-28T16:23:59.919Z,51.94
2023-02-28T16:29:03.112Z,52.52
2023-02-28T16:34:06.061Z,52.94
2023-02-28T16:39:07.779Z,54.11
2023-02-28T16:44:12.813Z,55.34
2023-02-28T16:49:15.141Z,55.83
2023-02-28T16:54:17.041Z,56.02
2023-02-28T16:59:20.862Z,56.34
2023-02-28T17:04:22.554Z,56.64
2023-02-28T17:09:30.801Z,56.99
2023-02-28T17:14:39.644Z,57.28
2023-02-28T17:19:44.041Z,57.73
2023-02-28T17:24:46.467Z,58.10
2023-02-28T17:29:49.039Z,58.13
2023-02-28T17:34:50.858Z,58.67
2023-02-28T17:39:52.636Z,58.83
2023-02-28T17:44:54.329Z,59.37
2023-02-28T17:49:55.955Z,59.71
2023-02-28T17:54:58.255Z,60.19
2023-02-28T17:59:59.958Z,60.41
2023-02-28T18:05:01.694Z,60.45
2023-02-28T18:10:04.287Z,60.96
2023-02-28T18:15:07.173Z,61.32
2023-02-28T18:20:11.516Z,61.10
2023-02-28T18:25:16.920Z,61.43
2023-02-28T18:30:19.270Z,61.38
2023-02-28T18:35:36.107Z,61.35
2023-02-28T18:40:38.544Z,61.76
2023-02-28T18:45:40.259Z,62.13
2023-02-28T18:50:42.282Z,62.66
2023-02-28T18:55:44.577Z,62.70
2023-02-28T19:00:47.720Z,62.35
2023-02-28T19:05:50.941Z,62.79
2023-02-28T19:10:52.965Z,63.39
2023-02-28T19:16:01.575Z,63.93
2023-02-28T19:21:03.869Z,64.19
2023-02-28T19:26:10.456Z,63.82
2023-02-28T19:31:17.667Z,64.16
2023-02-28T19:36:20.648Z,64.79
2023-02-28T19:41:22.838Z,65.51
2023-02-28T19:46:24.616Z,66.30
2023-02-28T19:51:28.853Z,66.36
2023-02-28T19:56:30.987Z,66.29
2023-02-28T20:01:33.074Z,66.25
2023-02-28T20:06:34.988Z,66.51
2023-02-28T20:11:37.188Z,66.61
2023-02-28T20:16:40.766Z,66.59
2023-02-28T20:21:44.011Z,66.63
2023-02-28T20:26:45.738Z,67.00
2023-02-28T20:31:47.536Z,67.25
2023-02-28T20:36:49.785Z,66.99
2023-02-28T20:41:51.500Z,66.80
2023-02-28T20:46:53.169Z,66.64
2023-02-28T20:51:54.832Z,67.12
2023-02-28T20:56:56.742Z,67.66
2023-02-28T21:01:58.436Z,69.78
2023-02-28T21:07:00.197Z,70.02
2023-02-28T21:12:01.814Z,68.75
2023-02-28T21:17:03.714Z,68.61
2023-02-28T21:22:05.507Z,69.33
2023-02-28T21:27:07.337Z,69.73
2023-02-28T21:32:09.151Z,69.59
2023-02-28T21:37:11.151Z,69.23
2023-02-28T21:42:13.095Z,68.14
2023-02-28T21:47:14.892Z,68.50
2023-02-28T21:52:21.831Z,69.66
2023-02-28T21:57:23.668Z,70.48
2023-02-28T22:02:25.881Z,71.00
2023-02-28T22:07:28.167Z,71.71
2023-02-28T22:12:30.824Z,73.22
2023-02-28T22:17:33.537Z,73.76
2023-02-28T22:22:35.472Z,74.01
2023-02-28T22:27:37.292Z,74.37
2023-02-28T22:32:41.235Z,74.63
2023-02-28T22:37:44.026Z,74.40
2023-02-28T22:42:46.731Z,75.28
2023-02-28T22:47:49.438Z,75.83
2023-02-28T22:52:52.930Z,76.93
2023-02-28T22:57:54.650Z,77.83
2023-02-28T23:02:56.434Z,78.23
2023-02-28T23:07:58.302Z,77.88
2023-02-28T23:13:00.842Z,77.22
2023-02-28T23:18:02.733Z,76.85
2023-02-28T23:23:04.905Z,76.62
2023-02-28T23:28:07.386Z,76.95
2023-02-28T23:33:14.133Z,78.09
2023-02-28T23:38:15.904Z,78.52
2023-02-28T23:43:17.615Z,79.10
2023-02-28T23:48:19.571Z,79.22
2023-02-28T23:53:21.386Z,78.62
2023-02-28T23:58:23.145Z,78.38
